Map

Track Data

SID SEASON NUMBER BASIN SUBBASIN NAME ISO_TIME NATURE LAT LON WMO_WIND WMO_PRES WMO_AGENCY TRACK_TYPE DIST2LAND LANDFALL IFLAG USA_AGENCY USA_ATCF_ID USA_LAT USA_LON USA_RECORD USA_STATUS USA_WIND USA_PRES USA_SSHS USA_R34_NE USA_R34_SE USA_R34_SW USA_R34_NW USA_R50_NE USA_R50_SE USA_R50_SW USA_R50_NW USA_R64_NE USA_R64_SE USA_R64_SW USA_R64_NW USA_POCI USA_ROCI USA_RMW USA_EYE TOKYO_LAT TOKYO_LON TOKYO_GRADE TOKYO_WIND TOKYO_PRES TOKYO_R50_DIR TOKYO_R50_LONG TOKYO_R50_SHORT TOKYO_R30_DIR TOKYO_R30_LONG TOKYO_R30_SHORT TOKYO_LAND CMA_LAT CMA_LON CMA_CAT CMA_WIND CMA_PRES HKO_LAT HKO_LON HKO_CAT HKO_WIND HKO_PRES NEWDELHI_LAT NEWDELHI_LON NEWDELHI_GRADE NEWDELHI_WIND NEWDELHI_PRES NEWDELHI_CI NEWDELHI_DP NEWDELHI_POCI REUNION_LAT REUNION_LON REUNION_TYPE REUNION_WIND REUNION_PRES REUNION_TNUM REUNION_CI REUNION_RMW REUNION_R34_NE REUNION_R34_SE REUNION_R34_SW REUNION_R34_NW REUNION_R50_NE REUNION_R50_SE REUNION_R50_SW REUNION_R50_NW REUNION_R64_NE REUNION_R64_SE REUNION_R64_SW REUNION_R64_NW BOM_LAT BOM_LON BOM_TYPE BOM_WIND BOM_PRES BOM_TNUM BOM_CI BOM_RMW BOM_R34_NE BOM_R34_SE BOM_R34_SW BOM_R34_NW BOM_R50_NE BOM_R50_SE BOM_R50_SW BOM_R50_NW BOM_R64_NE BOM_R64_SE BOM_R64_SW BOM_R64_NW BOM_ROCI BOM_POCI BOM_EYE BOM_POS_METHOD BOM_PRES_METHOD NADI_LAT NADI_LON NADI_CAT NADI_WIND NADI_PRES WELLINGTON_LAT WELLINGTON_LON WELLINGTON_WIND WELLINGTON_PRES DS824_LAT DS824_LON DS824_STAGE DS824_WIND DS824_PRES TD9636_LAT TD9636_LON TD9636_STAGE TD9636_WIND TD9636_PRES TD9635_LAT TD9635_LON TD9635_WIND TD9635_PRES TD9635_ROCI NEUMANN_LAT NEUMANN_LON NEUMANN_CLASS NEUMANN_WIND NEUMANN_PRES MLC_LAT MLC_LON MLC_CLASS MLC_WIND MLC_PRES USA_GUST BOM_GUST BOM_GUST_PER REUNION_GUST REUNION_GUST_PER USA_SEAHGT USA_SEARAD_NE USA_SEARAD_SE USA_SEARAD_SW USA_SEARAD_NW STORM_SPEED STORM_DIR
1965155N12253 1965 45 EP MM VICTORIA 1965-06-04 00:00:00 TS 11.7000 -106.900 25 hurdat_epa main 824 800 O________OO___ hurdat_epa EP011965 11.7000 -106.900 TD 25 -1 11.7000 -106.900 TC 25 11.7000 -106.900 1 17 312
1965155N12253 1965 45 EP MM VICTORIA 1965-06-04 03:00:00 TS 12.2613 -107.543 main 796 790 P________PP___ EP011965 12.2628 -107.540 TD 25 -1 12.2628 -107.540 TC 25 12.2556 -107.557 1 17 311
1965155N12253 1965 45 EP MM VICTORIA 1965-06-04 06:00:00 TS 12.7977 -108.205 25 hurdat_epa main 795 788 O________OP___ hurdat_epa EP011965 12.8000 -108.200 TD 25 -1 12.8000 -108.200 TC 25 12.7885 -108.223 1 17 308
1965155N12253 1965 45 EP MM VICTORIA 1965-06-04 09:00:00 TS 13.2853 -108.894 main 792 788 P________PP___ EP011965 13.2874 -108.893 TD 25 -1 13.2874 -108.893 TC 25 13.2770 -108.902 1 16 304
1965155N12253 1965 45 EP MM VICTORIA 1965-06-04 12:00:00 TS 13.7000 -109.600 25 hurdat_epa main 800 798 O________OO___ hurdat_epa EP011965 13.7000 -109.600 TD 25 -1 13.7000 -109.600 TC 25 13.7000 -109.600 2 16 299
1965155N12253 1965 45 EP MM VICTORIA 1965-06-04 15:00:00 TS 14.0382 -110.304 main 825 817 P________PP___ EP011965 14.0373 -110.300 TD 25 -1 14.0373 -110.300 TC 25 14.0421 -110.318 2 15 294
1965155N12253 1965 45 EP MM VICTORIA 1965-06-04 18:00:00 TS 14.3025 -111.008 25 hurdat_epa main 855 855 O________OP___ hurdat_epa EP011965 14.3000 -111.000 TD 25 -1 14.3000 -111.000 TC 25 14.3125 -111.038 2 15 290
1965155N12253 1965 45 EP MM VICTORIA 1965-06-04 21:00:00 TS 14.5293 -111.726 main 895 895 P________PP___ EP011965 14.5300 -111.723 TD 35 0 14.5300 -111.723 TC 35 14.5266 -111.739 2 14 286
1965155N12253 1965 45 EP MM VICTORIA 1965-06-05 00:00:00 TS 14.7000 -112.400 45 hurdat_epa main 938 938 O________OO___ hurdat_epa EP011965 14.7000 -112.400 TS 45 0 14.7000 -112.400 TC 45 14.7000 -112.400 2 12 283
1965155N12253 1965 45 EP MM VICTORIA 1965-06-05 03:00:00 TS 14.8161 -112.978 main 959 956 P________PP___ EP011965 14.8072 -112.973 TS 45 0 14.8072 -112.973 TC 45 14.8519 -112.998 2 11 281
1965155N12253 1965 45 EP MM VICTORIA 1965-06-05 06:00:00 TS 14.9143 -113.511 45 hurdat_epa main 967 965 O________OP___ hurdat_epa EP011965 14.9000 -113.500 TS 45 0 14.9000 -113.500 TC 45 14.9714 -113.554 2 11 282
1965155N12253 1965 45 EP MM VICTORIA 1965-06-05 09:00:00 TS 15.0439 -114.057 main 983 973 P________PP___ EP011965 15.0349 -114.050 TS 45 0 15.0349 -114.050 TC 45 15.0802 -114.082 2 11 285
1965155N12253 1965 45 EP MM VICTORIA 1965-06-05 12:00:00 TS 15.2000 -114.600 45 hurdat_epa main 987 987 O________OO___ hurdat_epa EP011965 15.2000 -114.600 TS 45 0 15.2000 -114.600 TC 45 15.2000 -114.600 2 11 288
1965155N12253 1965 45 EP MM VICTORIA 1965-06-05 15:00:00 TS 15.3945 -115.160 main 1000 997 P________PP___ EP011965 15.3999 -115.157 TS 45 0 15.3999 -115.157 TC 45 15.3729 -115.168 2 11 290
1965155N12253 1965 45 EP MM VICTORIA 1965-06-05 18:00:00 TS 15.5915 -115.705 45 hurdat_epa main 1012 1012 O________OP___ hurdat_epa EP011965 15.6000 -115.700 TS 45 0 15.6000 -115.700 TC 45 15.5577 -115.724 2 11 289
1965155N12253 1965 45 EP MM VICTORIA 1965-06-05 21:00:00 TS 15.7597 -116.239 main 1026 1026 P________PP___ EP011965 15.7650 -116.238 TS 45 0 15.7650 -116.238 TC 45 15.7386 -116.243 2 10 288
1965155N12253 1965 45 EP MM VICTORIA 1965-06-06 00:00:00 TS 15.9000 -116.700 45 hurdat_epa main 1051 1051 O________OO___ hurdat_epa EP011965 15.9000 -116.700 TS 45 0 15.9000 -116.700 TC 45 15.9000 -116.700 2 8 288
1965155N12253 1965 45 EP MM VICTORIA 1965-06-06 03:00:00 TS 16.0068 -117.038 main 1064 1064 P________PP___ EP011965 16.0073 -117.030 TS 45 0 16.0073 -117.030 TC 45 16.0046 -117.069 2 6 289
1965155N12253 1965 45 EP MM VICTORIA 1965-06-06 06:00:00 TS 16.0983 -117.315 45 hurdat_epa main 1078 1078 O________OP___ hurdat_epa EP011965 16.1000 -117.300 TS 45 0 16.1000 -117.300 TC 45 16.0917 -117.376 2 6 289
1965155N12253 1965 45 EP MM VICTORIA 1965-06-06 09:00:00 TS 16.1905 -117.609 main 1093 1093 P________PP___ EP011965 16.1925 -117.600 TS 45 0 16.1925 -117.600 TC 45 16.1829 -117.644 2 6 290
1965155N12253 1965 45 EP MM VICTORIA 1965-06-06 12:00:00 TS 16.3000 -117.900 45 hurdat_epa main 1108 1108 O________OO___ hurdat_epa EP011965 16.3000 -117.900 TS 45 0 16.3000 -117.900 TC 45 16.3000 -117.900 2 6 293
1965155N12253 1965 45 EP MM VICTORIA 1965-06-06 15:00:00 TS 16.4330 -118.206 main 1124 1117 P________PP___ EP011965 16.4275 -118.208 TS 45 0 16.4275 -118.208 TC 45 16.4550 -118.198 2 7 298
1965155N12253 1965 45 EP MM VICTORIA 1965-06-06 18:00:00 TS 16.6080 -118.498 45 hurdat_epa main 1123 1118 O________OP___ hurdat_epa EP011965 16.6000 -118.500 TS 45 0 16.6000 -118.500 TC 45 16.6400 -118.488 2 7 307
1965155N12253 1965 45 EP MM VICTORIA 1965-06-06 21:00:00 TS 16.8330 -118.764 main 1124 1111 P________PP___ EP011965 16.8275 -118.765 TS 45 0 16.8275 -118.765 TC 45 16.8550 -118.758 2 7 316
1965155N12253 1965 45 EP MM VICTORIA 1965-06-07 00:00:00 TS 17.1000 -119.000 45 hurdat_epa main 1111 1099 O________OO___ hurdat_epa EP011965 17.1000 -119.000 TS 45 0 17.1000 -119.000 TC 45 17.1000 -119.000 6 7 322
1965155N12253 1965 45 EP MM VICTORIA 1965-06-07 03:00:00 TS 17.3887 -119.214 main 1099 1088 P________PP___ EP011965 17.3925 -119.215 TS 35 0 17.3925 -119.215 TC 35 17.3737 -119.208 6 7 327
1965155N12253 1965 45 EP MM VICTORIA 1965-06-07 06:00:00 TS 17.6940 -119.397 25 hurdat_epa main 1088 1071 O________OP___ hurdat_epa EP011965 17.7000 -119.400 TD 25 -1 17.7000 -119.400 TC 25 17.6700 -119.387 6 7 332
1965155N12253 1965 45 EP MM VICTORIA 1965-06-07 09:00:00 TS 17.9983 -119.556 main 1078 1062 P________PP___ EP011965 18.0025 -119.557 TD 25 -1 18.0025 -119.557 TC 25 17.9813 -119.548 6 7 334
1965155N12253 1965 45 EP MM VICTORIA 1965-06-07 12:00:00 TS 18.3000 -119.700 25 hurdat_epa main 1062 O________OO___ hurdat_epa EP011965 18.3000 -119.700 TD 25 -1 18.3000 -119.700 TC 25 18.3000 -119.700 6 7 336

About IBTrACS Database

This database is a web-friendly format of International Best Track Archive for Climate Stewardship (IBTrACS), a global best track data archive curated by NOAA dating back to 1842.

Updated: 2021-10-08